createdAt,value
2019-03-20T00:00:21.870Z,8.46
2019-03-20T00:01:27.148Z,8.45
2019-03-20T00:02:32.249Z,8.44
2019-03-20T00:03:38.361Z,8.42
2019-03-20T00:04:49.817Z,8.41
2019-03-20T00:05:50.778Z,8.42
2019-03-20T00:06:56.137Z,8.39
2019-03-20T00:08:01.689Z,8.39
2019-03-20T00:09:09.578Z,8.40
2019-03-20T00:10:14.922Z,8.38
2019-03-20T00:11:20.369Z,8.38
2019-03-20T00:12:25.356Z,8.36
2019-03-20T00:13:30.635Z,8.36
2019-03-20T00:14:35.649Z,8.34
2019-03-20T00:15:40.706Z,8.35
2019-03-20T00:16:45.799Z,8.35
2019-03-20T00:17:50.885Z,8.34
2019-03-20T00:18:56.238Z,8.33
2019-03-20T00:20:01.748Z,8.33
2019-03-20T00:21:06.892Z,8.32
2019-03-20T00:22:12.337Z,8.31
2019-03-20T00:23:17.363Z,8.31
2019-03-20T00:24:22.760Z,8.30
2019-03-20T00:25:28.277Z,8.30
2019-03-20T00:26:33.413Z,8.29
2019-03-20T00:27:38.805Z,8.28
2019-03-20T00:28:43.939Z,8.27
2019-03-20T00:29:49.363Z,8.27
2019-03-20T00:30:54.541Z,8.26
2019-03-20T00:31:59.941Z,8.25
2019-03-20T00:33:05.253Z,8.25
2019-03-20T00:34:10.266Z,8.23
2019-03-20T00:35:16.042Z,8.23
2019-03-20T00:36:21.209Z,8.23
2019-03-20T00:37:26.222Z,8.21
2019-03-20T00:38:31.303Z,8.21
2019-03-20T00:39:36.288Z,8.22
2019-03-20T00:40:41.365Z,8.20
2019-03-20T00:41:46.436Z,8.19
2019-03-20T00:42:51.373Z,8.18
2019-03-20T00:43:56.364Z,8.17
2019-03-20T00:45:01.380Z,8.18
2019-03-20T00:46:06.543Z,8.15
2019-03-20T00:47:11.629Z,8.14
2019-03-20T00:48:16.926Z,8.14
2019-03-20T00:49:21.916Z,8.12
2019-03-20T00:50:26.984Z,8.12
2019-03-20T00:51:31.972Z,8.11
2019-03-20T00:52:36.992Z,8.09
2019-03-20T00:53:42.080Z,8.10
2019-03-20T00:54:47.511Z,8.09
2019-03-20T00:55:53.703Z,8.08
2019-03-20T00:56:59.040Z,8.07
2019-03-20T00:58:04.592Z,8.05
2019-03-20T00:59:09.535Z,8.03
2019-03-20T01:00:19.599Z,8.03
2019-03-20T01:01:24.627Z,8.01
2019-03-20T01:02:29.720Z,7.99
2019-03-20T01:03:35.215Z,7.99
2019-03-20T01:04:40.545Z,7.98
2019-03-20T01:05:45.586Z,7.98
2019-03-20T01:06:50.628Z,7.96
2019-03-20T01:07:55.785Z,7.97
2019-03-20T01:09:00.851Z,7.95
2019-03-20T01:10:07.227Z,7.94
2019-03-20T01:11:12.392Z,7.96
2019-03-20T01:12:17.780Z,7.95
2019-03-20T01:13:23.310Z,7.94
2019-03-20T01:14:28.299Z,7.95
2019-03-20T01:15:33.510Z,7.94
2019-03-20T01:16:38.665Z,7.94
2019-03-20T01:17:43.844Z,7.92
2019-03-20T01:18:49.161Z,7.90
2019-03-20T01:19:54.150Z,7.88
2019-03-20T01:20:59.456Z,7.89
2019-03-20T01:22:05.110Z,7.88
2019-03-20T01:23:10.326Z,7.86
2019-03-20T01:24:15.474Z,7.85
2019-03-20T01:25:20.709Z,7.85
2019-03-20T01:26:25.877Z,7.84
2019-03-20T01:27:31.075Z,7.83
2019-03-20T01:28:36.359Z,7.82
2019-03-20T01:29:41.697Z,7.83
2019-03-20T01:30:46.715Z,7.82
2019-03-20T01:31:52.218Z,7.82
2019-03-20T01:32:57.447Z,7.81
2019-03-20T01:34:02.542Z,7.81
2019-03-20T01:35:07.950Z,7.80
2019-03-20T01:36:12.994Z,7.80
2019-03-20T01:37:18.099Z,7.80
2019-03-20T01:38:23.409Z,7.78
2019-03-20T01:39:28.319Z,7.77
2019-03-20T01:40:33.450Z,7.77
2019-03-20T01:41:38.509Z,7.76
2019-03-20T01:42:43.503Z,7.75
2019-03-20T01:43:48.524Z,7.76
2019-03-20T01:44:53.761Z,7.74
2019-03-20T01:45:59.189Z,7.73
2019-03-20T01:47:06.718Z,7.74
2019-03-20T01:48:11.365Z,7.72
2019-03-20T01:49:16.433Z,7.72
2019-03-20T01:50:21.458Z,7.72
2019-03-20T01:51:26.596Z,7.69
2019-03-20T01:52:32.149Z,7.70
2019-03-20T01:53:37.184Z,7.69
2019-03-20T01:54:42.573Z,7.69
2019-03-20T01:55:47.602Z,7.67
2019-03-20T01:56:52.990Z,7.68
2019-03-20T01:57:58.077Z,7.65
2019-03-20T01:59:03.102Z,7.66
2019-03-20T02:00:08.494Z,7.64
2019-03-20T02:01:13.576Z,7.63
2019-03-20T02:02:18.577Z,7.63
2019-03-20T02:03:23.702Z,7.63
2019-03-20T02:04:28.662Z,7.63
2019-03-20T02:05:36.209Z,7.61
2019-03-20T02:06:40.866Z,7.61
2019-03-20T02:07:45.985Z,7.60
2019-03-20T02:08:51.370Z,7.59
2019-03-20T02:09:56.820Z,7.59
2019-03-20T02:11:01.965Z,7.57
2019-03-20T02:12:07.078Z,7.57
2019-03-20T02:13:12.174Z,7.57
2019-03-20T02:14:17.269Z,7.56
2019-03-20T02:15:22.449Z,7.56
2019-03-20T02:16:27.406Z,7.56
2019-03-20T02:17:32.664Z,7.55
2019-03-20T02:18:37.956Z,7.54
2019-03-20T02:19:43.234Z,7.52
2019-03-20T02:20:49.035Z,7.54
2019-03-20T02:21:54.174Z,7.52
2019-03-20T02:22:59.223Z,7.52
2019-03-20T02:24:04.423Z,7.51
2019-03-20T02:25:10.853Z,7.51
2019-03-20T02:26:16.612Z,7.50
2019-03-20T02:27:21.874Z,7.50
2019-03-20T02:28:27.127Z,7.50
2019-03-20T02:29:32.289Z,7.49
2019-03-20T02:30:37.373Z,7.48
2019-03-20T02:31:42.840Z,7.47
2019-03-20T02:32:48.029Z,7.47
2019-03-20T02:33:53.239Z,7.47
2019-03-20T02:34:58.824Z,7.46
2019-03-20T02:36:04.665Z,7.45
2019-03-20T02:37:10.652Z,7.44
2019-03-20T02:38:15.742Z,7.42
2019-03-20T02:39:20.828Z,7.42
2019-03-20T02:40:25.918Z,7.41
2019-03-20T02:41:31.164Z,7.40
2019-03-20T02:42:36.505Z,7.39
2019-03-20T02:43:41.763Z,7.37
2019-03-20T02:44:46.961Z,7.37
2019-03-20T02:45:52.030Z,7.36
2019-03-20T02:46:57.357Z,7.36
2019-03-20T02:48:02.714Z,7.35
2019-03-20T02:49:07.723Z,7.35
2019-03-20T02:50:13.245Z,7.34
2019-03-20T02:51:18.602Z,7.33
2019-03-20T02:52:23.950Z,7.33
2019-03-20T02:53:28.988Z,7.33
2019-03-20T02:54:34.731Z,7.31
2019-03-20T02:55:40.356Z,7.31
2019-03-20T02:56:45.697Z,7.29
2019-03-20T02:57:51.028Z,7.29
2019-03-20T02:58:56.113Z,7.28
2019-03-20T03:00:01.216Z,7.27
2019-03-20T03:01:06.288Z,7.26
2019-03-20T03:02:11.674Z,7.25
2019-03-20T03:03:16.701Z,7.23
2019-03-20T03:04:22.555Z,7.22
2019-03-20T03:05:27.498Z,7.21
2019-03-20T03:06:32.612Z,7.22
2019-03-20T03:07:37.580Z,7.22
2019-03-20T03:08:42.935Z,7.21
2019-03-20T03:09:48.385Z,7.21
2019-03-20T03:10:55.708Z,7.20
2019-03-20T03:12:00.629Z,7.20
2019-03-20T03:13:06.155Z,7.19
2019-03-20T03:14:11.650Z,7.19
2019-03-20T03:15:17.149Z,7.18
2019-03-20T03:16:22.196Z,7.18
2019-03-20T03:17:27.556Z,7.17
2019-03-20T03:18:32.740Z,7.16
2019-03-20T03:19:37.803Z,7.15
2019-03-20T03:20:43.048Z,7.14
2019-03-20T03:21:48.524Z,7.14
2019-03-20T03:22:54.113Z,7.13
2019-03-20T03:23:59.251Z,7.12
2019-03-20T03:25:05.158Z,7.12
2019-03-20T03:26:10.600Z,7.10
2019-03-20T03:27:15.692Z,7.12
2019-03-20T03:28:21.367Z,7.10
2019-03-20T03:29:26.864Z,7.10
2019-03-20T03:30:31.949Z,7.10
2019-03-20T03:31:37.477Z,7.09
2019-03-20T03:32:43.174Z,7.09
2019-03-20T03:33:48.487Z,7.07
2019-03-20T03:34:53.546Z,7.07
2019-03-20T03:35:58.502Z,7.07
2019-03-20T03:37:03.552Z,7.05
2019-03-20T03:38:08.716Z,7.05
2019-03-20T03:39:14.099Z,7.06
2019-03-20T03:40:19.256Z,7.05
2019-03-20T03:41:24.244Z,7.05
2019-03-20T03:42:29.273Z,7.04
2019-03-20T03:43:34.424Z,7.03
2019-03-20T03:44:39.653Z,7.03
2019-03-20T03:45:44.618Z,7.02
2019-03-20T03:46:49.742Z,7.02
2019-03-20T03:47:54.887Z,7.00
2019-03-20T03:49:00.614Z,7.01
2019-03-20T03:50:06.915Z,6.99
2019-03-20T03:51:12.475Z,7.00
2019-03-20T03:52:17.648Z,6.99
2019-03-20T03:53:22.634Z,6.99
2019-03-20T03:54:28.237Z,6.97
2019-03-20T03:55:33.226Z,6.97
2019-03-20T03:56:38.384Z,6.97
2019-03-20T03:57:43.909Z,6.96
2019-03-20T03:58:49.035Z,6.94
2019-03-20T03:59:54.111Z,6.95
2019-03-20T04:00:59.396Z,6.94
2019-03-20T04:02:04.427Z,6.94
2019-03-20T04:03:09.539Z,6.93
2019-03-20T04:04:14.565Z,6.92
2019-03-20T04:05:19.791Z,6.92
2019-03-20T04:06:35.700Z,6.91
2019-03-20T04:07:31.852Z,6.90
2019-03-20T04:08:36.842Z,6.90
2019-03-20T04:09:41.773Z,6.90
2019-03-20T04:10:47.640Z,6.89
2019-03-20T04:11:52.627Z,6.89
2019-03-20T04:12:57.609Z,6.88
2019-03-20T04:14:02.837Z,6.88
2019-03-20T04:15:09.824Z,6.87
2019-03-20T04:16:15.212Z,6.86
2019-03-20T04:17:25.106Z,6.84
2019-03-20T04:18:30.531Z,6.85
2019-03-20T04:19:35.664Z,6.84
2019-03-20T04:20:41.283Z,6.81
2019-03-20T04:21:46.705Z,6.80
2019-03-20T04:22:51.685Z,6.81
2019-03-20T04:23:56.887Z,6.80
2019-03-20T04:25:02.374Z,6.79
2019-03-20T04:26:07.326Z,6.77
2019-03-20T04:27:12.430Z,6.78
2019-03-20T04:28:17.785Z,6.77
2019-03-20T04:29:22.926Z,6.77
2019-03-20T04:30:28.237Z,6.77
2019-03-20T04:31:33.317Z,6.76
2019-03-20T04:32:38.716Z,6.75
2019-03-20T04:33:44.215Z,6.74
2019-03-20T04:34:49.523Z,6.73
2019-03-20T04:35:54.693Z,6.73
2019-03-20T04:36:59.613Z,6.74
2019-03-20T04:38:04.707Z,6.74
2019-03-20T04:39:10.357Z,6.72
2019-03-20T04:40:15.762Z,6.72
2019-03-20T04:41:20.742Z,6.70
2019-03-20T04:42:25.836Z,6.70
2019-03-20T04:43:30.868Z,6.69
2019-03-20T04:44:35.961Z,6.69
2019-03-20T04:45:40.930Z,6.69
2019-03-20T04:46:45.954Z,6.69
2019-03-20T04:47:51.297Z,6.68
2019-03-20T04:48:56.358Z,6.68
2019-03-20T04:50:01.494Z,6.69
2019-03-20T04:51:06.945Z,6.68
2019-03-20T04:52:12.308Z,6.67
2019-03-20T04:53:17.297Z,6.68
2019-03-20T04:54:22.352Z,6.67
2019-03-20T04:55:27.660Z,6.67
2019-03-20T04:56:32.781Z,6.67
2019-03-20T04:57:38.063Z,6.67
2019-03-20T04:58:43.053Z,6.67
2019-03-20T04:59:48.094Z,6.65
2019-03-20T05:00:53.160Z,6.64
2019-03-20T05:01:58.159Z,6.63
2019-03-20T05:03:03.117Z,6.64
2019-03-20T05:04:08.128Z,6.64
2019-03-20T05:05:13.497Z,6.63
2019-03-20T05:06:18.663Z,6.64
2019-03-20T05:07:23.820Z,6.63
2019-03-20T05:08:29.610Z,6.63
2019-03-20T05:09:34.699Z,6.63
2019-03-20T05:10:39.689Z,6.65
2019-03-20T05:11:44.950Z,6.65
2019-03-20T05:12:50.348Z,6.65
2019-03-20T05:13:55.710Z,6.66
2019-03-20T05:15:00.814Z,6.66
2019-03-20T05:16:06.107Z,6.68
2019-03-20T05:17:11.336Z,6.70
2019-03-20T05:18:16.543Z,6.71
2019-03-20T05:19:22.149Z,6.72
2019-03-20T05:20:27.221Z,6.74
2019-03-20T05:21:32.558Z,6.77
2019-03-20T05:22:38.224Z,6.78
2019-03-20T05:23:44.030Z,6.80
2019-03-20T05:24:53.159Z,6.81
2019-03-20T05:25:58.545Z,6.84
2019-03-20T05:27:04.015Z,6.85
2019-03-20T05:28:09.150Z,6.89
2019-03-20T05:29:14.322Z,6.90
2019-03-20T05:30:19.520Z,6.91
2019-03-20T05:31:24.655Z,6.95
2019-03-20T05:32:29.759Z,6.95
2019-03-20T05:33:34.663Z,6.96
2019-03-20T05:34:39.652Z,6.98
2019-03-20T05:35:44.676Z,6.99
2019-03-20T05:36:49.996Z,7.00
2019-03-20T05:37:55.039Z,7.02
2019-03-20T05:39:00.596Z,7.03
2019-03-20T05:40:05.996Z,7.05
2019-03-20T05:41:10.950Z,7.06
2019-03-20T05:42:15.942Z,7.06
2019-03-20T05:43:20.944Z,7.09
2019-03-20T05:44:26.081Z,7.09
2019-03-20T05:45:31.117Z,7.11
2019-03-20T05:46:36.199Z,7.12
2019-03-20T05:47:41.468Z,7.14
2019-03-20T05:48:46.806Z,7.16
2019-03-20T05:49:51.948Z,7.18
2019-03-20T05:50:57.038Z,7.20
2019-03-20T05:52:01.992Z,7.22
2019-03-20T05:53:06.988Z,7.24
2019-03-20T05:54:12.260Z,7.26
2019-03-20T05:55:17.425Z,7.29
2019-03-20T05:56:22.472Z,7.31
2019-03-20T05:57:27.694Z,7.33
2019-03-20T05:58:32.673Z,7.36
2019-03-20T05:59:37.707Z,7.38
2019-03-20T06:00:42.910Z,7.39
2019-03-20T06:01:48.323Z,7.41
2019-03-20T06:02:53.954Z,7.44
2019-03-20T06:03:59.087Z,7.48
2019-03-20T06:05:04.515Z,7.52
2019-03-20T06:06:09.525Z,7.54
2019-03-20T06:07:21.524Z,7.56
2019-03-20T06:08:21.183Z,7.59
2019-03-20T06:09:26.230Z,7.64
2019-03-20T06:10:31.298Z,7.66
2019-03-20T06:11:36.324Z,7.69
2019-03-20T06:12:41.646Z,7.72
2019-03-20T06:13:47.133Z,7.74
2019-03-20T06:14:52.364Z,7.75
2019-03-20T06:15:57.647Z,7.77
2019-03-20T06:17:02.711Z,7.79
2019-03-20T06:18:07.831Z,7.81
2019-03-20T06:19:13.097Z,7.82
2019-03-20T06:20:18.259Z,7.84
2019-03-20T06:21:23.780Z,7.85
2019-03-20T06:22:28.806Z,7.86
2019-03-20T06:23:34.727Z,7.86
2019-03-20T06:24:40.266Z,7.86
2019-03-20T06:25:45.726Z,7.88
2019-03-20T06:26:51.066Z,7.90
2019-03-20T06:27:56.051Z,7.92
2019-03-20T06:29:01.084Z,7.93
2019-03-20T06:30:07.164Z,7.93
2019-03-20T06:31:12.292Z,7.94
2019-03-20T06:32:17.400Z,7.95
2019-03-20T06:33:22.426Z,7.95
2019-03-20T06:34:27.734Z,7.95
2019-03-20T06:35:32.924Z,7.95
2019-03-20T06:36:38.211Z,7.95
2019-03-20T06:37:43.466Z,7.94
2019-03-20T06:38:48.606Z,7.96
2019-03-20T06:39:53.793Z,7.97
2019-03-20T06:40:58.740Z,7.99
2019-03-20T06:42:03.695Z,8.02
2019-03-20T06:43:08.723Z,8.05
2019-03-20T06:44:13.711Z,8.07
2019-03-20T06:45:19.001Z,8.09
2019-03-20T06:46:24.219Z,8.10
2019-03-20T06:47:29.172Z,8.13
2019-03-20T06:48:34.325Z,8.15
2019-03-20T06:49:39.839Z,8.18
2019-03-20T06:50:44.975Z,8.20
2019-03-20T06:51:50.112Z,8.23
2019-03-20T06:52:55.252Z,8.25
2019-03-20T06:54:01.342Z,8.27
2019-03-20T06:55:07.051Z,8.28
2019-03-20T06:56:12.213Z,8.30
2019-03-20T06:57:17.482Z,8.32
2019-03-20T06:58:22.649Z,8.33
2019-03-20T07:00:12.266Z,8.35
2019-03-20T07:01:27.972Z,8.36
2019-03-20T07:02:32.732Z,8.40
2019-03-20T07:04:17.387Z,8.41
2019-03-20T07:05:49.687Z,8.42
2019-03-20T07:07:08.624Z,8.44
2019-03-20T07:08:13.820Z,8.43
2019-03-20T07:09:23.441Z,8.43
2019-03-20T07:11:08.795Z,8.43
2019-03-20T07:12:13.997Z,8.43
2019-03-20T07:13:20.192Z,8.45
2019-03-20T07:14:25.197Z,8.44
2019-03-20T07:15:30.348Z,8.45
2019-03-20T07:16:35.706Z,8.45
2019-03-20T07:17:41.041Z,8.47
2019-03-20T07:18:46.175Z,8.47
2019-03-20T07:19:51.255Z,8.47
2019-03-20T07:20:56.682Z,8.48
2019-03-20T07:22:01.788Z,8.49
2019-03-20T07:23:07.107Z,8.52
2019-03-20T07:24:12.267Z,8.53
2019-03-20T07:25:17.787Z,8.55
2019-03-20T07:26:23.251Z,8.58
2019-03-20T07:27:28.551Z,8.60
2019-03-20T07:28:33.682Z,8.65
2019-03-20T07:29:39.092Z,8.68
2019-03-20T07:30:44.509Z,8.71
2019-03-20T07:31:49.571Z,8.73
2019-03-20T07:32:56.282Z,8.75
2019-03-20T07:34:01.472Z,8.77
2019-03-20T07:35:06.694Z,8.80
2019-03-20T07:36:11.922Z,8.84
2019-03-20T07:37:17.199Z,8.86
2019-03-20T07:38:23.278Z,8.89
2019-03-20T07:39:28.944Z,8.92
2019-03-20T07:40:34.681Z,8.95
2019-03-20T07:41:39.851Z,8.98
2019-03-20T07:42:44.960Z,9.01
2019-03-20T07:43:50.010Z,9.04
2019-03-20T07:44:55.178Z,9.07
2019-03-20T07:46:00.640Z,9.10
2019-03-20T07:47:05.861Z,9.13
2019-03-20T07:48:21.167Z,9.16
2019-03-20T07:49:17.595Z,9.19
2019-03-20T07:50:22.886Z,9.23
2019-03-20T07:51:27.937Z,9.26
2019-03-20T07:52:33.083Z,9.27
2019-03-20T07:53:38.174Z,9.30
2019-03-20T07:54:43.628Z,9.34
2019-03-20T07:55:48.818Z,9.39
2019-03-20T07:56:54.501Z,9.41
2019-03-20T07:57:59.729Z,9.41
2019-03-20T07:59:04.884Z,9.42
2019-03-20T08:00:15.671Z,9.47
2019-03-20T08:01:20.726Z,9.48
2019-03-20T08:02:26.084Z,9.49
2019-03-20T08:03:31.040Z,9.49
2019-03-20T08:04:36.247Z,9.48
2019-03-20T08:05:41.305Z,9.46
2019-03-20T08:06:46.478Z,9.48
2019-03-20T08:07:53.141Z,9.51
2019-03-20T08:08:58.144Z,9.53
2019-03-20T08:10:03.248Z,9.58
2019-03-20T08:11:08.725Z,9.60
2019-03-20T08:12:14.270Z,9.62
2019-03-20T08:13:19.290Z,9.65
2019-03-20T08:14:24.346Z,9.66
2019-03-20T08:15:29.425Z,9.65
2019-03-20T08:16:34.499Z,9.67
2019-03-20T08:17:39.559Z,9.66
2019-03-20T08:18:44.501Z,9.68
2019-03-20T08:19:49.451Z,9.67
2019-03-20T08:20:54.497Z,9.70
2019-03-20T08:21:59.847Z,9.74
2019-03-20T08:23:05.237Z,9.76
2019-03-20T08:24:10.350Z,9.79
2019-03-20T08:25:15.398Z,9.82
2019-03-20T08:26:20.757Z,9.85
2019-03-20T08:27:25.724Z,9.87
2019-03-20T08:28:30.865Z,9.91
2019-03-20T08:29:36.021Z,9.94
2019-03-20T08:30:41.210Z,9.98
2019-03-20T08:31:46.270Z,10.02
2019-03-20T08:32:51.287Z,10.07
2019-03-20T08:33:56.428Z,10.11
2019-03-20T08:35:01.846Z,10.15
2019-03-20T08:36:06.901Z,10.20
2019-03-20T08:37:11.996Z,10.25
2019-03-20T08:38:18.707Z,10.29
2019-03-20T08:39:24.437Z,10.32
2019-03-20T08:40:29.444Z,10.34
2019-03-20T08:41:35.068Z,10.38
2019-03-20T08:42:40.193Z,10.42
2019-03-20T08:43:45.751Z,10.53
2019-03-20T08:44:50.816Z,10.53
2019-03-20T08:45:56.032Z,10.58
2019-03-20T08:47:01.185Z,10.63
2019-03-20T08:48:06.221Z,10.69
2019-03-20T08:49:11.370Z,10.73
2019-03-20T08:50:17.916Z,10.79
2019-03-20T08:51:23.310Z,10.82
2019-03-20T08:52:28.436Z,10.86
2019-03-20T08:53:33.474Z,10.88
2019-03-20T08:54:38.652Z,10.91
2019-03-20T08:55:43.909Z,10.91
2019-03-20T08:56:49.085Z,10.95
2019-03-20T08:57:54.541Z,10.99
2019-03-20T08:58:59.689Z,10.97
2019-03-20T09:00:06.739Z,11.03
2019-03-20T09:01:11.862Z,11.04
2019-03-20T09:02:16.964Z,11.09
2019-03-20T09:03:22.203Z,11.10
2019-03-20T09:04:27.249Z,11.12
2019-03-20T09:05:32.776Z,11.15
2019-03-20T09:06:38.195Z,11.19
2019-03-20T09:07:47.411Z,11.19
2019-03-20T09:08:50.063Z,11.19
2019-03-20T09:09:55.049Z,11.20
2019-03-20T09:11:00.253Z,11.20
2019-03-20T09:12:06.048Z,11.27
2019-03-20T09:13:11.144Z,11.28
2019-03-20T09:14:16.157Z,11.27
2019-03-20T09:15:21.904Z,11.32
2019-03-20T09:16:27.372Z,11.34
2019-03-20T09:17:32.654Z,11.37
2019-03-20T09:18:37.986Z,11.40
2019-03-20T09:19:43.633Z,11.44
2019-03-20T09:20:48.625Z,11.45
2019-03-20T09:21:53.622Z,11.48
2019-03-20T09:22:59.153Z,11.51
2019-03-20T09:24:04.287Z,11.55
2019-03-20T09:25:11.344Z,11.60
2019-03-20T09:26:16.351Z,11.60
2019-03-20T09:27:21.513Z,11.62
2019-03-20T09:28:26.540Z,11.64
2019-03-20T09:29:35.961Z,11.67
2019-03-20T09:30:38.399Z,11.69
2019-03-20T09:31:43.472Z,11.72
2019-03-20T09:32:48.522Z,11.74
2019-03-20T09:33:53.793Z,11.78
2019-03-20T09:34:59.137Z,11.80
2019-03-20T09:36:04.208Z,11.83
2019-03-20T09:37:09.618Z,11.85
2019-03-20T09:38:14.646Z,11.88
2019-03-20T09:39:19.640Z,11.91
2019-03-20T09:40:25.210Z,11.93
2019-03-20T09:41:30.387Z,11.94
2019-03-20T09:42:35.540Z,11.91
2019-03-20T09:43:40.508Z,11.99
2019-03-20T09:44:45.764Z,12.01
2019-03-20T09:45:51.096Z,12.04
2019-03-20T09:46:56.150Z,12.07
2019-03-20T09:48:01.518Z,12.10
2019-03-20T09:49:06.875Z,12.12
2019-03-20T09:50:14.022Z,12.14
2019-03-20T09:51:19.132Z,12.15
2019-03-20T09:52:24.199Z,12.17
2019-03-20T09:53:29.560Z,12.20
2019-03-20T09:54:34.620Z,12.22
2019-03-20T09:55:39.682Z,12.23
2019-03-20T09:56:44.722Z,12.25
2019-03-20T09:57:50.769Z,12.26
2019-03-20T09:58:55.841Z,12.29
2019-03-20T10:00:00.857Z,12.30
2019-03-20T10:01:06.079Z,12.32
2019-03-20T10:02:11.472Z,12.37
2019-03-20T10:03:17.038Z,12.39
2019-03-20T10:04:22.334Z,12.42
2019-03-20T10:05:27.657Z,12.44
2019-03-20T10:06:33.117Z,12.46
2019-03-20T10:07:38.230Z,12.48
2019-03-20T10:08:53.588Z,12.52
2019-03-20T10:09:50.128Z,12.55
2019-03-20T10:10:55.172Z,12.60
2019-03-20T10:12:00.614Z,12.62
2019-03-20T10:13:06.412Z,12.64
2019-03-20T10:14:11.438Z,12.70
2019-03-20T10:15:17.279Z,12.72
2019-03-20T10:16:22.943Z,12.74
2019-03-20T10:17:28.263Z,12.78
2019-03-20T10:18:33.854Z,12.83
2019-03-20T10:19:39.055Z,12.86
2019-03-20T10:20:44.232Z,12.90
2019-03-20T10:21:49.309Z,12.94
2019-03-20T10:22:54.554Z,12.97
2019-03-20T10:24:00.077Z,13.00
2019-03-20T10:25:06.012Z,13.05
2019-03-20T10:26:11.194Z,13.07
2019-03-20T10:27:16.285Z,13.11
2019-03-20T10:28:21.760Z,13.13
2019-03-20T10:29:26.945Z,13.18
2019-03-20T10:30:32.067Z,13.22
2019-03-20T10:31:37.145Z,13.24
2019-03-20T10:32:42.196Z,13.27
2019-03-20T10:33:47.654Z,13.30
2019-03-20T10:34:52.963Z,13.33
2019-03-20T10:35:58.054Z,13.37
2019-03-20T10:37:03.190Z,13.40
2019-03-20T10:38:08.260Z,13.43
2019-03-20T10:39:13.493Z,13.47
2019-03-20T10:40:22.004Z,13.49
2019-03-20T10:41:27.101Z,13.53
2019-03-20T10:42:32.405Z,13.56
2019-03-20T10:43:37.537Z,13.60
2019-03-20T10:44:43.860Z,13.63
2019-03-20T10:45:52.488Z,13.68
2019-03-20T10:46:57.512Z,13.70
2019-03-20T10:48:03.055Z,13.74
2019-03-20T10:49:08.192Z,13.76
2019-03-20T10:50:18.305Z,13.77
2019-03-20T10:51:23.445Z,13.80
2019-03-20T10:52:28.908Z,13.80
2019-03-20T10:53:34.417Z,13.82
2019-03-20T10:54:39.422Z,13.82
2019-03-20T10:55:44.744Z,13.83
2019-03-20T10:56:49.926Z,13.81
2019-03-20T10:57:56.797Z,13.80
2019-03-20T10:59:01.894Z,13.80
2019-03-20T11:00:09.811Z,13.79
2019-03-20T11:01:14.798Z,13.79
2019-03-20T11:02:20.024Z,13.78
2019-03-20T11:03:25.102Z,13.78
2019-03-20T11:04:30.265Z,13.78
2019-03-20T11:05:35.737Z,13.78
2019-03-20T11:06:40.753Z,13.78
2019-03-20T11:07:45.895Z,13.79
2019-03-20T11:08:51.394Z,13.79
2019-03-20T11:09:56.762Z,13.79
2019-03-20T11:11:01.865Z,13.79
2019-03-20T11:12:07.422Z,13.78
2019-03-20T11:13:12.765Z,13.79
2019-03-20T11:14:18.235Z,13.80
2019-03-20T11:15:23.619Z,13.81
2019-03-20T11:16:29.164Z,13.83
2019-03-20T11:17:34.705Z,13.86
2019-03-20T11:18:40.040Z,13.88
2019-03-20T11:19:45.220Z,13.91
2019-03-20T11:20:53.423Z,13.94
2019-03-20T11:21:57.524Z,13.97
2019-03-20T11:23:08.816Z,14.00
2019-03-20T11:24:15.300Z,14.04
2019-03-20T11:25:20.791Z,14.08
2019-03-20T11:26:25.821Z,14.14
2019-03-20T11:27:33.204Z,14.16
2019-03-20T11:28:37.658Z,14.19
2019-03-20T11:29:42.823Z,14.23
2019-03-20T11:30:47.964Z,14.25
2019-03-20T11:31:53.290Z,14.28
2019-03-20T11:32:58.939Z,14.32
2019-03-20T11:34:04.607Z,14.33
2019-03-20T11:35:10.197Z,14.37
2019-03-20T11:36:15.873Z,14.42
2019-03-20T11:37:22.100Z,14.46
2019-03-20T11:38:27.031Z,14.50
2019-03-20T11:39:32.064Z,14.54
2019-03-20T11:40:37.428Z,14.57
2019-03-20T11:41:42.564Z,14.62
2019-03-20T11:42:48.234Z,14.67
2019-03-20T11:43:53.275Z,14.74
2019-03-20T11:44:58.272Z,14.82
2019-03-20T11:46:03.309Z,14.89
2019-03-20T11:47:08.429Z,14.97
2019-03-20T11:48:13.699Z,15.06
2019-03-20T11:49:18.893Z,15.13
2019-03-20T11:50:35.289Z,15.21
2019-03-20T11:51:41.542Z,15.25
2019-03-20T11:52:46.539Z,15.30
2019-03-20T11:53:51.606Z,15.33
2019-03-20T11:54:56.544Z,15.35
2019-03-20T11:56:01.629Z,15.38
2019-03-20T11:57:07.010Z,15.39
2019-03-20T11:58:12.138Z,15.40
2019-03-20T11:59:17.129Z,15.40
2019-03-20T12:00:22.230Z,15.40
2019-03-20T12:01:27.344Z,15.42
2019-03-20T12:02:32.810Z,15.43
2019-03-20T12:03:37.959Z,15.47
2019-03-20T12:04:43.279Z,15.49
2019-03-20T12:05:48.522Z,15.52
2019-03-20T12:06:53.488Z,15.54
2019-03-20T12:07:58.592Z,15.56
2019-03-20T12:09:05.798Z,15.55
2019-03-20T12:10:16.734Z,15.56
2019-03-20T12:11:21.946Z,15.56
2019-03-20T12:12:26.901Z,15.58
2019-03-20T12:13:31.885Z,15.59
2019-03-20T12:14:36.889Z,15.62
2019-03-20T12:15:42.032Z,15.64
2019-03-20T12:16:47.066Z,15.64
2019-03-20T12:17:52.219Z,15.67
2019-03-20T12:18:57.257Z,15.68
2019-03-20T12:20:02.536Z,15.68
2019-03-20T12:21:07.810Z,15.70
2019-03-20T12:22:13.147Z,15.72
2019-03-20T12:23:18.251Z,15.74
2019-03-20T12:24:23.337Z,15.78
2019-03-20T12:25:28.979Z,15.81
2019-03-20T12:26:34.014Z,15.85
2019-03-20T12:27:39.111Z,15.88
2019-03-20T12:28:44.194Z,15.91
2019-03-20T12:29:49.467Z,15.93
2019-03-20T12:30:54.964Z,15.96
2019-03-20T12:32:00.095Z,16.00
2019-03-20T12:33:06.134Z,16.03
2019-03-20T12:34:11.152Z,16.07
2019-03-20T12:35:16.579Z,16.11
2019-03-20T12:36:22.091Z,16.16
2019-03-20T12:37:27.722Z,16.19
2019-03-20T12:38:33.201Z,16.21
2019-03-20T12:39:38.426Z,16.22
2019-03-20T12:40:43.895Z,16.26
2019-03-20T12:41:48.865Z,16.30
2019-03-20T12:42:54.590Z,16.31
2019-03-20T12:43:59.758Z,16.33
2019-03-20T12:45:05.867Z,16.34
2019-03-20T12:46:10.988Z,16.35
2019-03-20T12:47:15.895Z,16.35
2019-03-20T12:48:21.308Z,16.33
2019-03-20T12:49:26.635Z,16.35
2019-03-20T12:50:32.481Z,16.37
2019-03-20T12:51:37.635Z,16.40
2019-03-20T12:52:42.726Z,16.44
2019-03-20T12:53:47.881Z,16.44
2019-03-20T12:54:52.898Z,16.44
2019-03-20T12:55:57.954Z,16.46
2019-03-20T12:57:02.906Z,16.44
2019-03-20T12:58:08.171Z,16.44
2019-03-20T12:59:13.189Z,16.43
2019-03-20T13:00:20.174Z,16.40
2019-03-20T13:01:25.608Z,16.39
2019-03-20T13:02:30.668Z,16.39
2019-03-20T13:03:35.678Z,16.40
2019-03-20T13:04:40.745Z,16.40
2019-03-20T13:05:45.822Z,16.44
2019-03-20T13:06:51.307Z,16.44
2019-03-20T13:08:05.260Z,16.43
2019-03-20T13:09:03.854Z,16.42
2019-03-20T13:10:10.816Z,16.40
2019-03-20T13:11:15.682Z,16.37
2019-03-20T13:12:20.884Z,16.31
2019-03-20T13:13:26.265Z,16.28
2019-03-20T13:14:31.871Z,16.26
2019-03-20T13:15:37.211Z,16.24
2019-03-20T13:16:42.227Z,16.24
2019-03-20T13:17:47.302Z,16.22
2019-03-20T13:18:52.453Z,16.21
2019-03-20T13:19:57.525Z,16.20
2019-03-20T13:21:02.534Z,16.20
2019-03-20T13:22:07.475Z,16.19
2019-03-20T13:23:14.082Z,16.18
2019-03-20T13:24:19.267Z,16.20
2019-03-20T13:25:24.286Z,16.19
2019-03-20T13:26:29.312Z,16.18
2019-03-20T13:27:34.373Z,16.18
2019-03-20T13:28:39.429Z,16.19
2019-03-20T13:29:44.593Z,16.21
2019-03-20T13:30:53.279Z,16.23
2019-03-20T13:31:58.651Z,16.25
2019-03-20T13:33:04.027Z,16.24
2019-03-20T13:34:09.054Z,16.25
2019-03-20T13:35:14.337Z,16.24
2019-03-20T13:36:19.547Z,16.23
2019-03-20T13:37:24.854Z,16.22
2019-03-20T13:38:29.934Z,16.19
2019-03-20T13:39:34.955Z,16.18
2019-03-20T13:40:40.284Z,16.16
2019-03-20T13:41:45.264Z,16.17
2019-03-20T13:42:50.281Z,16.19
2019-03-20T13:43:55.511Z,16.19
2019-03-20T13:45:00.589Z,16.19
2019-03-20T13:46:06.044Z,16.17
2019-03-20T13:47:11.475Z,16.16
2019-03-20T13:48:16.666Z,16.18
2019-03-20T13:49:21.808Z,16.19
2019-03-20T13:50:27.096Z,16.22
2019-03-20T13:51:32.108Z,16.25
2019-03-20T13:52:37.417Z,16.25
2019-03-20T13:53:42.445Z,16.24
2019-03-20T13:54:47.398Z,16.24
2019-03-20T13:55:52.802Z,16.25
2019-03-20T13:56:57.816Z,16.27
2019-03-20T13:58:02.971Z,16.30
2019-03-20T13:59:08.031Z,16.32
2019-03-20T14:00:18.181Z,16.35
2019-03-20T14:01:23.278Z,16.37
2019-03-20T14:02:28.572Z,16.39
2019-03-20T14:03:33.637Z,16.39
2019-03-20T14:04:38.744Z,16.41
2019-03-20T14:05:43.827Z,16.43
2019-03-20T14:06:48.824Z,16.45
2019-03-20T14:07:53.958Z,16.46
2019-03-20T14:08:58.968Z,16.46
2019-03-20T14:10:04.520Z,16.47
2019-03-20T14:11:09.553Z,16.48
2019-03-20T14:12:14.595Z,16.46
2019-03-20T14:13:19.667Z,16.44
2019-03-20T14:14:25.185Z,16.45
2019-03-20T14:15:30.599Z,16.45
2019-03-20T14:16:36.076Z,16.44
2019-03-20T14:17:41.397Z,16.44
2019-03-20T14:18:47.456Z,16.44
2019-03-20T14:19:52.434Z,16.44
2019-03-20T14:20:57.601Z,16.43